Terminal Aerodrome Forecast
Issued by NWS Atlanta, GA

Home | Current Version | Previous Version | Text Only | Print | Product List | Glossary On
Versions: 1 2 3 4 5 6 7 8 9 10 11 12 13 14 15 16 17 18 19 20 21 22 23 24 25 26 27 28
859
FTAK31 PAJN 271136
TAFAHN
TAF
PAHN 271136Z 2712/2812 09005KT 5SM -RA BR OVC010
      TEMPO 2712/2716 13005KT 2SM -RA BR OVC007
     FM271900 13012G22KT 4SM RA BR BKN007 OVC015
     FM280000 13015G25KT 3SM RA BR OVC015
     FM280900 10010G18KT 5SM -RA BR BKN015 OVC025
      AMD LTD TO CLD VIS AND WIND=

USA.gov is the U.S. government's official web portal to all federal, state and local government web resources and services.